Time,TemperatureF,DewpointF,PressureIn,WindDirection,WindDirectionDegrees,WindSpeedMPH,WindSpeedGustMPH,Humidity,HourlyPrecipIn,Conditions,Clouds,dailyrainin,SolarRadiationWatts/m^2,SoftwareType,DateUTC
2013-02-02 02:00:00,24.0,15.0,30.08,SSW,213,2.0,-999.0,69,-99.99,,,-99.99,0.000000,,2013-02-02 08:00:00,
2013-02-02 02:53:00,24.0,15.0,30.08,SSW,213,2.0,-999.0,69,-99.99,,,-99.99,0.000000,,2013-02-02 08:53:00,
2013-02-02 03:00:00,26.0,16.0,30.08,SW,215,2.0,-999.0,64,-99.99,,,-99.99,0.000000,,2013-02-02 09:00:00,
2013-02-02 03:52:00,26.0,16.0,30.08,SW,215,2.0,-999.0,64,-99.99,,,-99.99,0.000000,,2013-02-02 09:52:00,
2013-02-02 04:00:00,26.0,17.0,30.08,SW,225,3.0,-999.0,67,-99.99,,,-99.99,0.000000,,2013-02-02 10:00:00,
2013-02-02 04:52:00,26.0,17.0,30.08,SW,225,3.0,-999.0,67,-99.99,,,-99.99,0.000000,,2013-02-02 10:52:00,
2013-02-02 05:00:00,27.0,17.0,30.09,WSW,241,3.0,-999.0,66,-99.99,,,-99.99,0.000000,,2013-02-02 11:00:00,
2013-02-02 05:52:00,27.0,17.0,30.09,WSW,241,3.0,-999.0,66,-99.99,,,-99.99,0.000000,,2013-02-02 11:52:00,
2013-02-02 06:00:00,28.0,18.0,30.10,WSW,256,2.0,-999.0,65,-99.99,,,-99.99,0.000000,,2013-02-02 12:00:00,
2013-02-02 06:52:00,28.0,18.0,30.10,WSW,256,2.0,-999.0,65,-99.99,,,-99.99,0.000000,,2013-02-02 12:52:00,
2013-02-02 07:00:00,28.0,19.0,30.11,WNW,287,3.0,-999.0,68,-99.99,,,-99.99,0.000000,,2013-02-02 13:00:00,
2013-02-02 07:52:00,28.0,19.0,30.11,WNW,287,3.0,-999.0,68,-99.99,,,-99.99,0.000000,,2013-02-02 13:52:00,
2013-02-02 08:00:00,29.0,20.0,30.13,West,281,2.0,-999.0,71,-99.99,,,-99.99,10.420000,,2013-02-02 14:00:00,
2013-02-02 08:52:00,29.0,20.0,30.13,West,281,2.0,-999.0,71,-99.99,,,-99.99,10.420000,,2013-02-02 14:52:00,
2013-02-02 09:00:00,31.0,22.0,30.14,West,276,2.0,-999.0,69,-99.99,,,-99.99,66.790001,,2013-02-02 15:00:00,
2013-02-02 09:52:00,31.0,22.0,30.14,West,276,2.0,-999.0,69,-99.99,,,-99.99,66.790001,,2013-02-02 15:52:00,
2013-02-02 10:00:00,35.0,22.0,30.16,West,277,2.0,-999.0,59,-99.99,,,-99.99,229.399994,,2013-02-02 16:00:00,
2013-02-02 10:52:00,35.0,22.0,30.16,West,277,2.0,-999.0,59,-99.99,,,-99.99,229.399994,,2013-02-02 16:52:00,
2013-02-02 11:00:00,36.0,23.0,30.17,WNW,300,3.0,-999.0,59,-99.99,,,-99.99,184.000000,,2013-02-02 17:00:00,
2013-02-02 11:52:00,36.0,23.0,30.17,WNW,300,3.0,-999.0,59,-99.99,,,-99.99,184.000000,,2013-02-02 17:52:00,
2013-02-02 12:00:00,37.0,23.0,30.18,WNW,294,2.0,-999.0,56,-99.99,,,-99.99,167.800003,,2013-02-02 18:00:00,
2013-02-02 12:52:00,37.0,23.0,30.18,WNW,294,2.0,-999.0,56,-99.99,,,-99.99,167.800003,,2013-02-02 18:52:00,
2013-02-02 13:00:00,40.0,26.0,30.15,West,274,3.0,-999.0,57,-99.99,,,-99.99,271.399994,,2013-02-02 19:00:00,
2013-02-02 13:52:00,40.0,26.0,30.15,West,274,3.0,-999.0,57,-99.99,,,-99.99,271.399994,,2013-02-02 19:52:00,
2013-02-02 14:00:00,43.0,27.0,30.14,West,272,4.0,-999.0,54,-99.99,,,-99.99,365.500000,,2013-02-02 20:00:00,
2013-02-02 14:52:00,43.0,27.0,30.14,West,272,4.0,-999.0,54,-99.99,,,-99.99,365.500000,,2013-02-02 20:52:00,
2013-02-02 15:00:00,45.0,29.0,30.14,West,281,4.0,-999.0,54,-99.99,,,-99.99,362.100006,,2013-02-02 21:00:00,
2013-02-02 15:52:00,45.0,29.0,30.14,West,281,4.0,-999.0,54,-99.99,,,-99.99,362.100006,,2013-02-02 21:52:00,
2013-02-02 16:00:00,44.0,28.0,30.13,WNW,301,3.0,-999.0,52,-99.99,,,-99.99,172.300003,,2013-02-02 22:00:00,
2013-02-02 16:52:00,44.0,28.0,30.13,WNW,301,3.0,-999.0,52,-99.99,,,-99.99,172.300003,,2013-02-02 22:52:00,
2013-02-02 17:00:00,43.0,28.0,30.13,NW,313,2.0,-999.0,54,-99.99,,,-99.99,111.000000,,2013-02-02 23:00:00,
2013-02-02 17:52:00,43.0,28.0,30.13,NW,313,2.0,-999.0,54,-99.99,,,-99.99,111.000000,,2013-02-02 23:52:00,
2013-02-02 18:00:00,37.0,28.0,30.11,WNW,301,0.0,-999.0,69,-99.99,,,-99.99,10.010000,,2013-02-03 00:00:00,
2013-02-02 18:52:00,37.0,28.0,30.11,WNW,301,0.0,-999.0,69,-99.99,,,-99.99,10.010000,,2013-02-03 00:52:00,
2013-02-02 19:00:00,32.0,26.0,30.08,ENE,78,0.0,-999.0,81,-99.99,,,-99.99,0.000000,,2013-02-03 01:00:00,
2013-02-02 19:52:00,32.0,26.0,30.08,ENE,78,0.0,-999.0,81,-99.99,,,-99.99,0.000000,,2013-02-03 01:52:00,
2013-02-02 20:00:00,30.0,26.0,30.07,West,269,0.0,-999.0,84,-99.99,,,-99.99,0.010000,,2013-02-03 02:00:00,
2013-02-02 20:52:00,30.0,26.0,30.07,West,269,0.0,-999.0,84,-99.99,,,-99.99,0.010000,,2013-02-03 02:52:00,
2013-02-02 21:00:00,39.0,31.0,30.05,SW,231,3.0,-999.0,73,-99.99,,,-99.99,0.000000,,2013-02-03 03:00:00,
2013-02-02 21:52:00,39.0,31.0,30.05,SW,231,3.0,-999.0,73,-99.99,,,-99.99,0.000000,,2013-02-03 03:52:00,
2013-02-02 22:00:00,42.0,31.0,30.06,WSW,246,4.0,-999.0,66,-99.99,,,-99.99,0.000000,,2013-02-03 04:00:00,
2013-02-02 22:52:00,42.0,31.0,30.06,WSW,246,4.0,-999.0,66,-99.99,,,-99.99,0.000000,,2013-02-03 04:52:00,
2013-02-02 23:00:00,44.0,31.0,30.08,West,277,5.0,-999.0,59,-99.99,,,-99.99,0.000000,,2013-02-03 05:00:00,
2013-02-02 23:52:00,44.0,31.0,30.08,West,277,5.0,-999.0,59,-99.99,,,-99.99,0.000000,,2013-02-03 05:52:00,